sensor_id;sensor_type;location;lat;lon;timestamp;P1;durP1;ratioP1;P2;durP2;ratioP2
25758;SDS011;13604;52.496;13.456;2022-08-03T00:02:10;5.05;;;3.35;;
25758;SDS011;13604;52.496;13.456;2022-08-03T00:04:36;8.65;;;3.28;;
25758;SDS011;13604;52.496;13.456;2022-08-03T00:07:01;5.68;;;3.63;;
25758;SDS011;13604;52.496;13.456;2022-08-03T00:09:26;5.18;;;3.00;;
25758;SDS011;13604;52.496;13.456;2022-08-03T00:11:52;8.20;;;3.22;;
25758;SDS011;13604;52.496;13.456;2022-08-03T00:14:17;3.78;;;2.88;;
25758;SDS011;13604;52.496;13.456;2022-08-03T00:16:42;4.85;;;3.17;;
25758;SDS011;13604;52.496;13.456;2022-08-03T00:19:07;4.45;;;3.03;;
25758;SDS011;13604;52.496;13.456;2022-08-03T00:21:33;6.22;;;3.67;;
25758;SDS011;13604;52.496;13.456;2022-08-03T00:23:58;6.68;;;3.17;;
25758;SDS011;13604;52.496;13.456;2022-08-03T00:26:23;7.32;;;3.22;;
25758;SDS011;13604;52.496;13.456;2022-08-03T00:28:49;9.85;;;3.50;;
25758;SDS011;13604;52.496;13.456;2022-08-03T00:31:14;5.45;;;3.50;;
25758;SDS011;13604;52.496;13.456;2022-08-03T00:33:39;6.18;;;3.53;;
25758;SDS011;13604;52.496;13.456;2022-08-03T00:36:05;6.40;;;3.70;;
25758;SDS011;13604;52.496;13.456;2022-08-03T00:38:30;6.93;;;3.80;;
25758;SDS011;13604;52.496;13.456;2022-08-03T00:40:56;8.48;;;3.42;;
25758;SDS011;13604;52.496;13.456;2022-08-03T00:43:23;6.95;;;3.78;;
25758;SDS011;13604;52.496;13.456;2022-08-03T00:45:50;7.28;;;3.65;;
25758;SDS011;13604;52.496;13.456;2022-08-03T00:48:16;5.38;;;3.55;;
25758;SDS011;13604;52.496;13.456;2022-08-03T00:50:41;7.47;;;3.95;;
25758;SDS011;13604;52.496;13.456;2022-08-03T00:53:08;5.25;;;3.70;;
25758;SDS011;13604;52.496;13.456;2022-08-03T00:55:36;9.23;;;4.03;;
25758;SDS011;13604;52.496;13.456;2022-08-03T00:58:01;7.28;;;3.88;;
25758;SDS011;13604;52.496;13.456;2022-08-03T01:00:31;11.57;;;4.13;;
25758;SDS011;13604;52.496;13.456;2022-08-03T01:03:00;6.40;;;3.63;;
25758;SDS011;13604;52.496;13.456;2022-08-03T01:05:26;6.78;;;3.72;;
25758;SDS011;13604;52.496;13.456;2022-08-03T01:08:02;6.78;;;3.78;;
25758;SDS011;13604;52.496;13.456;2022-08-03T01:13:35;6.05;;;3.50;;
25758;SDS011;13604;52.496;13.456;2022-08-03T01:16:29;6.20;;;3.75;;
25758;SDS011;13604;52.496;13.456;2022-08-03T01:19:01;7.28;;;3.80;;
25758;SDS011;13604;52.496;13.456;2022-08-03T01:24:43;8.45;;;3.70;;
25758;SDS011;13604;52.496;13.456;2022-08-03T01:27:20;6.05;;;3.78;;
25758;SDS011;13604;52.496;13.456;2022-08-03T01:29:51;6.57;;;3.60;;
25758;SDS011;13604;52.496;13.456;2022-08-03T01:32:25;3.97;;;3.33;;
25758;SDS011;13604;52.496;13.456;2022-08-03T01:34:59;6.05;;;3.60;;
25758;SDS011;13604;52.496;13.456;2022-08-03T01:37:31;7.40;;;4.13;;
25758;SDS011;13604;52.496;13.456;2022-08-03T01:40:02;6.10;;;3.83;;
25758;SDS011;13604;52.496;13.456;2022-08-03T01:42:30;8.82;;;3.92;;
25758;SDS011;13604;52.496;13.456;2022-08-03T01:44:57;9.80;;;4.22;;
25758;SDS011;13604;52.496;13.456;2022-08-03T01:47:24;4.38;;;3.65;;
25758;SDS011;13604;52.496;13.456;2022-08-03T01:49:52;9.05;;;4.13;;
25758;SDS011;13604;52.496;13.456;2022-08-03T01:52:20;6.05;;;3.78;;
25758;SDS011;13604;52.496;13.456;2022-08-03T01:54:47;5.97;;;3.97;;
25758;SDS011;13604;52.496;13.456;2022-08-03T01:57:14;6.13;;;3.75;;
25758;SDS011;13604;52.496;13.456;2022-08-03T01:59:41;6.72;;;4.13;;
25758;SDS011;13604;52.496;13.456;2022-08-03T02:02:11;5.82;;;3.80;;
25758;SDS011;13604;52.496;13.456;2022-08-03T02:04:38;6.80;;;4.10;;
25758;SDS011;13604;52.496;13.456;2022-08-03T02:07:06;8.75;;;4.10;;
25758;SDS011;13604;52.496;13.456;2022-08-03T02:09:33;5.38;;;3.90;;
25758;SDS011;13604;52.496;13.456;2022-08-03T02:12:02;5.47;;;4.25;;
25758;SDS011;13604;52.496;13.456;2022-08-03T02:14:31;6.53;;;4.20;;
25758;SDS011;13604;52.496;13.456;2022-08-03T02:16:58;5.30;;;4.18;;
25758;SDS011;13604;52.496;13.456;2022-08-03T02:19:24;5.15;;;4.00;;
25758;SDS011;13604;52.496;13.456;2022-08-03T02:21:51;5.50;;;3.85;;
25758;SDS011;13604;52.496;13.456;2022-08-03T02:24:17;4.95;;;3.75;;
25758;SDS011;13604;52.496;13.456;2022-08-03T02:26:43;5.65;;;4.22;;
25758;SDS011;13604;52.496;13.456;2022-08-03T02:29:10;6.13;;;4.18;;
25758;SDS011;13604;52.496;13.456;2022-08-03T02:31:39;6.93;;;3.80;;
25758;SDS011;13604;52.496;13.456;2022-08-03T02:34:08;6.00;;;4.20;;
25758;SDS011;13604;52.496;13.456;2022-08-03T02:36:38;6.13;;;3.92;;
25758;SDS011;13604;52.496;13.456;2022-08-03T02:39:05;9.10;;;4.55;;
25758;SDS011;13604;52.496;13.456;2022-08-03T02:41:37;7.50;;;4.35;;
25758;SDS011;13604;52.496;13.456;2022-08-03T02:44:07;8.18;;;4.50;;
25758;SDS011;13604;52.496;13.456;2022-08-03T02:46:36;9.40;;;4.55;;
25758;SDS011;13604;52.496;13.456;2022-08-03T02:49:03;7.47;;;4.15;;
25758;SDS011;13604;52.496;13.456;2022-08-03T02:51:31;8.88;;;3.90;;
25758;SDS011;13604;52.496;13.456;2022-08-03T02:53:59;7.75;;;4.00;;
25758;SDS011;13604;52.496;13.456;2022-08-03T02:56:27;4.95;;;3.78;;
25758;SDS011;13604;52.496;13.456;2022-08-03T02:58:54;8.82;;;4.78;;
25758;SDS011;13604;52.496;13.456;2022-08-03T03:01:22;5.22;;;3.33;;
25758;SDS011;13604;52.496;13.456;2022-08-03T03:03:49;6.13;;;4.05;;
25758;SDS011;13604;52.496;13.456;2022-08-03T03:06:16;6.38;;;3.80;;
25758;SDS011;13604;52.496;13.456;2022-08-03T03:08:43;4.75;;;3.47;;
25758;SDS011;13604;52.496;13.456;2022-08-03T03:11:09;6.88;;;3.47;;
25758;SDS011;13604;52.496;13.456;2022-08-03T03:13:37;6.88;;;3.83;;
25758;SDS011;13604;52.496;13.456;2022-08-03T03:16:05;7.43;;;4.00;;
25758;SDS011;13604;52.496;13.456;2022-08-03T03:18:32;5.93;;;3.50;;
25758;SDS011;13604;52.496;13.456;2022-08-03T03:20:59;7.38;;;3.80;;
25758;SDS011;13604;52.496;13.456;2022-08-03T03:23:26;5.90;;;4.03;;
25758;SDS011;13604;52.496;13.456;2022-08-03T03:25:52;4.68;;;3.90;;
25758;SDS011;13604;52.496;13.456;2022-08-03T03:28:19;5.68;;;3.83;;
25758;SDS011;13604;52.496;13.456;2022-08-03T03:30:46;7.38;;;4.40;;
25758;SDS011;13604;52.496;13.456;2022-08-03T03:33:11;6.30;;;4.20;;
25758;SDS011;13604;52.496;13.456;2022-08-03T03:35:37;8.70;;;4.80;;
25758;SDS011;13604;52.496;13.456;2022-08-03T03:38:04;6.35;;;4.00;;
25758;SDS011;13604;52.496;13.456;2022-08-03T03:40:29;6.03;;;3.72;;
25758;SDS011;13604;52.496;13.456;2022-08-03T03:42:54;7.35;;;4.03;;
25758;SDS011;13604;52.496;13.456;2022-08-03T03:45:20;9.70;;;3.83;;
25758;SDS011;13604;52.496;13.456;2022-08-03T03:47:45;7.95;;;4.50;;
25758;SDS011;13604;52.496;13.456;2022-08-03T03:50:11;7.80;;;4.53;;
25758;SDS011;13604;52.496;13.456;2022-08-03T03:52:36;6.35;;;4.00;;
25758;SDS011;13604;52.496;13.456;2022-08-03T03:55:02;6.45;;;4.32;;
25758;SDS011;13604;52.496;13.456;2022-08-03T03:57:27;6.40;;;4.03;;
25758;SDS011;13604;52.496;13.456;2022-08-03T03:59:53;6.82;;;4.30;;
25758;SDS011;13604;52.496;13.456;2022-08-03T04:02:18;8.70;;;4.25;;
25758;SDS011;13604;52.496;13.456;2022-08-03T04:04:43;7.85;;;4.20;;
25758;SDS011;13604;52.496;13.456;2022-08-03T04:07:27;9.93;;;5.40;;
25758;SDS011;13604;52.496;13.456;2022-08-03T04:10:22;5.55;;;4.00;;
25758;SDS011;13604;52.496;13.456;2022-08-03T04:13:12;6.38;;;4.20;;
25758;SDS011;13604;52.496;13.456;2022-08-03T04:15:39;5.22;;;3.83;;
25758;SDS011;13604;52.496;13.456;2022-08-03T04:18:06;7.97;;;3.92;;
25758;SDS011;13604;52.496;13.456;2022-08-03T04:20:35;6.30;;;4.43;;
25758;SDS011;13604;52.496;13.456;2022-08-03T04:23:02;4.60;;;3.80;;
25758;SDS011;13604;52.496;13.456;2022-08-03T04:25:31;5.38;;;4.25;;
25758;SDS011;13604;52.496;13.456;2022-08-03T04:28:00;6.45;;;3.83;;
25758;SDS011;13604;52.496;13.456;2022-08-03T04:30:29;6.55;;;4.72;;
25758;SDS011;13604;52.496;13.456;2022-08-03T04:32:57;7.53;;;4.40;;
25758;SDS011;13604;52.496;13.456;2022-08-03T04:35:27;6.72;;;3.92;;
25758;SDS011;13604;52.496;13.456;2022-08-03T04:37:55;7.70;;;4.65;;
25758;SDS011;13604;52.496;13.456;2022-08-03T04:40:34;12.65;;;5.13;;
25758;SDS011;13604;52.496;13.456;2022-08-03T04:43:03;7.90;;;4.18;;
25758;SDS011;13604;52.496;13.456;2022-08-03T04:45:29;7.28;;;3.95;;
25758;SDS011;13604;52.496;13.456;2022-08-03T04:47:56;5.03;;;3.95;;
25758;SDS011;13604;52.496;13.456;2022-08-03T04:50:22;6.70;;;4.25;;
25758;SDS011;13604;52.496;13.456;2022-08-03T04:52:48;6.68;;;4.10;;
25758;SDS011;13604;52.496;13.456;2022-08-03T04:55:29;6.25;;;3.80;;
25758;SDS011;13604;52.496;13.456;2022-08-03T04:57:57;8.10;;;4.68;;
25758;SDS011;13604;52.496;13.456;2022-08-03T05:00:24;4.57;;;4.07;;
25758;SDS011;13604;52.496;13.456;2022-08-03T05:02:50;5.32;;;3.97;;
25758;SDS011;13604;52.496;13.456;2022-08-03T05:05:15;4.35;;;3.95;;
25758;SDS011;13604;52.496;13.456;2022-08-03T05:07:42;10.23;;;4.20;;
25758;SDS011;13604;52.496;13.456;2022-08-03T05:10:09;8.55;;;4.68;;
25758;SDS011;13604;52.496;13.456;2022-08-03T05:12:35;6.60;;;4.75;;
25758;SDS011;13604;52.496;13.456;2022-08-03T05:15:00;5.80;;;4.60;;
25758;SDS011;13604;52.496;13.456;2022-08-03T05:17:25;8.80;;;4.80;;
25758;SDS011;13604;52.496;13.456;2022-08-03T05:19:52;6.97;;;4.13;;
25758;SDS011;13604;52.496;13.456;2022-08-03T05:22:17;6.72;;;4.13;;
25758;SDS011;13604;52.496;13.456;2022-08-03T05:24:43;7.43;;;4.05;;
25758;SDS011;13604;52.496;13.456;2022-08-03T05:27:08;6.40;;;4.22;;
25758;SDS011;13604;52.496;13.456;2022-08-03T05:29:33;7.45;;;4.40;;
25758;SDS011;13604;52.496;13.456;2022-08-03T05:31:59;7.60;;;4.13;;
25758;SDS011;13604;52.496;13.456;2022-08-03T05:34:25;7.53;;;4.40;;
25758;SDS011;13604;52.496;13.456;2022-08-03T05:36:51;11.95;;;4.75;;
25758;SDS011;13604;52.496;13.456;2022-08-03T05:39:16;8.60;;;4.35;;
25758;SDS011;13604;52.496;13.456;2022-08-03T05:41:41;7.05;;;4.35;;
25758;SDS011;13604;52.496;13.456;2022-08-03T05:44:07;10.00;;;4.38;;
25758;SDS011;13604;52.496;13.456;2022-08-03T05:46:32;8.90;;;4.70;;
25758;SDS011;13604;52.496;13.456;2022-08-03T05:48:57;9.85;;;4.18;;
25758;SDS011;13604;52.496;13.456;2022-08-03T05:51:22;8.38;;;4.00;;
25758;SDS011;13604;52.496;13.456;2022-08-03T05:53:48;6.18;;;3.78;;
25758;SDS011;13604;52.496;13.456;2022-08-03T05:56:13;7.93;;;3.85;;
25758;SDS011;13604;52.496;13.456;2022-08-03T05:58:38;8.32;;;3.63;;
25758;SDS011;13604;52.496;13.456;2022-08-03T06:01:04;11.07;;;3.80;;
25758;SDS011;13604;52.496;13.456;2022-08-03T06:03:29;5.45;;;3.67;;
25758;SDS011;13604;52.496;13.456;2022-08-03T06:05:54;9.02;;;3.85;;
25758;SDS011;13604;52.496;13.456;2022-08-03T06:08:20;8.48;;;4.03;;
25758;SDS011;13604;52.496;13.456;2022-08-03T06:10:46;13.25;;;4.00;;
25758;SDS011;13604;52.496;13.456;2022-08-03T06:13:11;8.20;;;4.25;;
25758;SDS011;13604;52.496;13.456;2022-08-03T06:15:36;14.25;;;3.90;;
25758;SDS011;13604;52.496;13.456;2022-08-03T06:18:02;13.65;;;4.13;;
25758;SDS011;13604;52.496;13.456;2022-08-03T06:20:27;21.77;;;4.72;;
25758;SDS011;13604;52.496;13.456;2022-08-03T06:22:52;13.90;;;4.32;;
25758;SDS011;13604;52.496;13.456;2022-08-03T06:25:18;13.18;;;3.85;;
25758;SDS011;13604;52.496;13.456;2022-08-03T06:27:44;9.02;;;3.00;;
25758;SDS011;13604;52.496;13.456;2022-08-03T06:30:09;10.05;;;3.28;;
25758;SDS011;13604;52.496;13.456;2022-08-03T06:32:36;7.53;;;3.08;;
25758;SDS011;13604;52.496;13.456;2022-08-03T06:35:03;8.88;;;2.85;;
25758;SDS011;13604;52.496;13.456;2022-08-03T06:37:30;7.38;;;3.08;;
25758;SDS011;13604;52.496;13.456;2022-08-03T06:39:55;5.85;;;2.92;;
25758;SDS011;13604;52.496;13.456;2022-08-03T06:42:20;6.70;;;2.83;;
25758;SDS011;13604;52.496;13.456;2022-08-03T06:44:46;5.93;;;2.50;;
25758;SDS011;13604;52.496;13.456;2022-08-03T06:47:11;4.55;;;2.47;;
25758;SDS011;13604;52.496;13.456;2022-08-03T06:49:36;4.10;;;2.60;;
25758;SDS011;13604;52.496;13.456;2022-08-03T06:52:02;9.77;;;2.60;;
25758;SDS011;13604;52.496;13.456;2022-08-03T06:54:28;8.90;;;2.40;;
25758;SDS011;13604;52.496;13.456;2022-08-03T06:56:53;4.68;;;2.40;;
25758;SDS011;13604;52.496;13.456;2022-08-03T06:59:19;3.70;;;2.28;;
25758;SDS011;13604;52.496;13.456;2022-08-03T07:01:44;3.55;;;2.28;;
25758;SDS011;13604;52.496;13.456;2022-08-03T07:04:09;3.92;;;2.17;;
25758;SDS011;13604;52.496;13.456;2022-08-03T07:06:36;4.63;;;2.10;;
25758;SDS011;13604;52.496;13.456;2022-08-03T07:09:02;6.07;;;2.08;;
25758;SDS011;13604;52.496;13.456;2022-08-03T07:11:27;6.50;;;2.30;;
25758;SDS011;13604;52.496;13.456;2022-08-03T07:13:52;9.35;;;2.50;;
25758;SDS011;13604;52.496;13.456;2022-08-03T07:16:18;3.40;;;1.85;;
25758;SDS011;13604;52.496;13.456;2022-08-03T07:18:43;6.70;;;2.10;;
25758;SDS011;13604;52.496;13.456;2022-08-03T07:21:08;6.13;;;2.42;;
25758;SDS011;13604;52.496;13.456;2022-08-03T07:23:34;4.32;;;2.25;;
25758;SDS011;13604;52.496;13.456;2022-08-03T07:26:00;10.57;;;2.40;;
25758;SDS011;13604;52.496;13.456;2022-08-03T07:28:25;4.22;;;2.30;;
25758;SDS011;13604;52.496;13.456;2022-08-03T07:30:50;5.47;;;2.17;;
25758;SDS011;13604;52.496;13.456;2022-08-03T07:33:16;4.90;;;2.20;;
25758;SDS011;13604;52.496;13.456;2022-08-03T07:35:41;3.55;;;2.25;;
25758;SDS011;13604;52.496;13.456;2022-08-03T07:38:06;5.93;;;2.10;;
25758;SDS011;13604;52.496;13.456;2022-08-03T07:40:32;6.13;;;2.03;;
25758;SDS011;13604;52.496;13.456;2022-08-03T07:42:58;5.43;;;2.13;;
25758;SDS011;13604;52.496;13.456;2022-08-03T07:45:24;5.63;;;2.00;;
25758;SDS011;13604;52.496;13.456;2022-08-03T07:47:50;4.63;;;2.03;;
25758;SDS011;13604;52.496;13.456;2022-08-03T07:50:15;6.10;;;1.95;;
25758;SDS011;13604;52.496;13.456;2022-08-03T07:52:41;2.30;;;1.80;;
25758;SDS011;13604;52.496;13.456;2022-08-03T07:55:12;4.50;;;1.90;;
25758;SDS011;13604;52.496;13.456;2022-08-03T07:57:37;5.65;;;1.70;;
25758;SDS011;13604;52.496;13.456;2022-08-03T08:00:03;3.65;;;1.77;;
25758;SDS011;13604;52.496;13.456;2022-08-03T08:02:30;2.58;;;1.70;;
25758;SDS011;13604;52.496;13.456;2022-08-03T08:04:56;5.32;;;1.90;;
25758;SDS011;13604;52.496;13.456;2022-08-03T08:07:21;5.95;;;1.80;;
25758;SDS011;13604;52.496;13.456;2022-08-03T08:09:46;2.55;;;1.80;;
25758;SDS011;13604;52.496;13.456;2022-08-03T08:12:12;3.55;;;2.03;;
25758;SDS011;13604;52.496;13.456;2022-08-03T08:14:37;5.22;;;2.10;;
25758;SDS011;13604;52.496;13.456;2022-08-03T08:17:03;8.25;;;1.90;;
25758;SDS011;13604;52.496;13.456;2022-08-03T08:19:28;3.92;;;2.22;;
25758;SDS011;13604;52.496;13.456;2022-08-03T08:21:54;3.28;;;1.80;;
25758;SDS011;13604;52.496;13.456;2022-08-03T08:24:19;3.85;;;1.85;;
25758;SDS011;13604;52.496;13.456;2022-08-03T08:26:44;5.15;;;1.85;;
25758;SDS011;13604;52.496;13.456;2022-08-03T08:29:09;2.55;;;1.65;;
25758;SDS011;13604;52.496;13.456;2022-08-03T08:31:35;5.53;;;2.00;;
25758;SDS011;13604;52.496;13.456;2022-08-03T08:34:00;6.72;;;1.98;;
25758;SDS011;13604;52.496;13.456;2022-08-03T08:36:29;4.50;;;2.08;;
25758;SDS011;13604;52.496;13.456;2022-08-03T08:38:56;5.68;;;1.67;;
25758;SDS011;13604;52.496;13.456;2022-08-03T08:41:21;5.03;;;1.75;;
25758;SDS011;13604;52.496;13.456;2022-08-03T08:43:47;2.45;;;1.75;;
25758;SDS011;13604;52.496;13.456;2022-08-03T08:46:12;3.88;;;1.52;;
25758;SDS011;13604;52.496;13.456;2022-08-03T08:48:41;4.32;;;1.67;;
25758;SDS011;13604;52.496;13.456;2022-08-03T08:51:08;6.03;;;1.60;;
25758;SDS011;13604;52.496;13.456;2022-08-03T08:53:36;4.30;;;1.60;;
25758;SDS011;13604;52.496;13.456;2022-08-03T08:56:02;3.08;;;1.85;;
25758;SDS011;13604;52.496;13.456;2022-08-03T08:58:29;5.00;;;1.80;;
25758;SDS011;13604;52.496;13.456;2022-08-03T09:01:02;3.28;;;1.75;;
25758;SDS011;13604;52.496;13.456;2022-08-03T09:03:28;3.10;;;1.75;;
25758;SDS011;13604;52.496;13.456;2022-08-03T09:05:53;4.97;;;1.35;;
25758;SDS011;13604;52.496;13.456;2022-08-03T09:08:19;2.65;;;1.42;;
25758;SDS011;13604;52.496;13.456;2022-08-03T09:10:45;3.15;;;1.60;;
25758;SDS011;13604;52.496;13.456;2022-08-03T09:13:10;4.95;;;1.60;;
25758;SDS011;13604;52.496;13.456;2022-08-03T09:15:36;2.03;;;1.58;;
25758;SDS011;13604;52.496;13.456;2022-08-03T09:18:03;2.85;;;1.55;;
25758;SDS011;13604;52.496;13.456;2022-08-03T09:20:29;2.05;;;1.60;;
25758;SDS011;13604;52.496;13.456;2022-08-03T09:25:33;1.77;;;1.38;;
25758;SDS011;13604;52.496;13.456;2022-08-03T09:28:07;4.28;;;1.73;;
25758;SDS011;13604;52.496;13.456;2022-08-03T09:30:39;2.25;;;1.45;;
25758;SDS011;13604;52.496;13.456;2022-08-03T09:33:07;6.25;;;1.40;;
25758;SDS011;13604;52.496;13.456;2022-08-03T09:35:46;4.68;;;1.40;;
25758;SDS011;13604;52.496;13.456;2022-08-03T09:40:48;4.47;;;1.50;;
25758;SDS011;13604;52.496;13.456;2022-08-03T09:43:14;3.78;;;1.55;;
25758;SDS011;13604;52.496;13.456;2022-08-03T09:45:40;4.72;;;1.85;;
25758;SDS011;13604;52.496;13.456;2022-08-03T09:50:49;4.22;;;1.65;;
25758;SDS011;13604;52.496;13.456;2022-08-03T09:53:15;3.33;;;1.80;;
25758;SDS011;13604;52.496;13.456;2022-08-03T09:55:52;3.42;;;1.50;;
25758;SDS011;13604;52.496;13.456;2022-08-03T09:58:19;2.97;;;1.75;;
25758;SDS011;13604;52.496;13.456;2022-08-03T10:00:51;2.60;;;1.63;;
25758;SDS011;13604;52.496;13.456;2022-08-03T10:03:29;4.00;;;1.52;;
25758;SDS011;13604;52.496;13.456;2022-08-03T10:05:55;2.38;;;1.20;;
25758;SDS011;13604;52.496;13.456;2022-08-03T10:08:22;1.60;;;1.25;;
25758;SDS011;13604;52.496;13.456;2022-08-03T10:10:48;3.63;;;1.45;;
25758;SDS011;13604;52.496;13.456;2022-08-03T10:13:15;3.38;;;1.48;;
25758;SDS011;13604;52.496;13.456;2022-08-03T10:15:42;2.75;;;1.17;;
25758;SDS011;13604;52.496;13.456;2022-08-03T10:18:07;2.53;;;1.42;;
25758;SDS011;13604;52.496;13.456;2022-08-03T10:23:16;2.25;;;1.20;;
25758;SDS011;13604;52.496;13.456;2022-08-03T10:25:42;4.38;;;1.33;;
25758;SDS011;13604;52.496;13.456;2022-08-03T10:28:11;1.75;;;1.40;;
25758;SDS011;13604;52.496;13.456;2022-08-03T10:30:39;1.77;;;1.27;;
25758;SDS011;13604;52.496;13.456;2022-08-03T10:33:16;2.55;;;1.50;;
25758;SDS011;13604;52.496;13.456;2022-08-03T10:35:43;1.88;;;1.35;;
25758;SDS011;13604;52.496;13.456;2022-08-03T10:38:15;4.47;;;1.48;;
25758;SDS011;13604;52.496;13.456;2022-08-03T10:40:44;2.17;;;1.40;;
25758;SDS011;13604;52.496;13.456;2022-08-03T10:43:17;2.75;;;1.42;;
25758;SDS011;13604;52.496;13.456;2022-08-03T10:45:44;1.35;;;1.25;;
25758;SDS011;13604;52.496;13.456;2022-08-03T10:48:10;2.80;;;1.00;;
25758;SDS011;13604;52.496;13.456;2022-08-03T10:50:36;1.50;;;1.35;;
25758;SDS011;13604;52.496;13.456;2022-08-03T10:53:03;2.80;;;1.17;;
25758;SDS011;13604;52.496;13.456;2022-08-03T10:55:33;3.25;;;1.42;;
25758;SDS011;13604;52.496;13.456;2022-08-03T11:01:13;3.92;;;1.35;;
25758;SDS011;13604;52.496;13.456;2022-08-03T11:06:17;4.10;;;1.38;;
25758;SDS011;13604;52.496;13.456;2022-08-03T11:08:47;1.20;;;1.17;;
25758;SDS011;13604;52.496;13.456;2022-08-03T11:11:35;2.35;;;1.30;;
25758;SDS011;13604;52.496;13.456;2022-08-03T11:14:05;1.58;;;1.40;;
25758;SDS011;13604;52.496;13.456;2022-08-03T11:16:39;1.23;;;1.10;;
25758;SDS011;13604;52.496;13.456;2022-08-03T11:19:09;1.23;;;1.10;;
25758;SDS011;13604;52.496;13.456;2022-08-03T11:27:20;3.72;;;1.40;;
25758;SDS011;13604;52.496;13.456;2022-08-03T11:37:34;2.13;;;1.38;;
25758;SDS011;13604;52.496;13.456;2022-08-03T11:40:00;1.50;;;1.40;;
25758;SDS011;13604;52.496;13.456;2022-08-03T11:44:53;3.38;;;1.30;;
25758;SDS011;13604;52.496;13.456;2022-08-03T11:47:24;1.88;;;1.25;;
25758;SDS011;13604;52.496;13.456;2022-08-03T11:49:55;2.20;;;1.50;;
25758;SDS011;13604;52.496;13.456;2022-08-03T11:52:24;3.17;;;1.42;;
25758;SDS011;13604;52.496;13.456;2022-08-03T11:54:50;1.60;;;1.40;;
25758;SDS011;13604;52.496;13.456;2022-08-03T11:57:27;1.20;;;1.10;;
25758;SDS011;13604;52.496;13.456;2022-08-03T11:59:54;3.55;;;1.38;;
25758;SDS011;13604;52.496;13.456;2022-08-03T12:02:19;5.13;;;1.20;;
25758;SDS011;13604;52.496;13.456;2022-08-03T12:07:22;4.20;;;1.27;;
25758;SDS011;13604;52.496;13.456;2022-08-03T12:10:08;4.95;;;1.30;;
25758;SDS011;13604;52.496;13.456;2022-08-03T12:12:38;4.10;;;1.55;;
25758;SDS011;13604;52.496;13.456;2022-08-03T12:15:05;2.55;;;1.70;;
25758;SDS011;13604;52.496;13.456;2022-08-03T12:17:34;1.50;;;1.10;;
25758;SDS011;13604;52.496;13.456;2022-08-03T12:20:01;2.13;;;1.30;;
25758;SDS011;13604;52.496;13.456;2022-08-03T12:22:35;1.38;;;1.10;;
25758;SDS011;13604;52.496;13.456;2022-08-03T12:25:05;3.03;;;1.23;;
25758;SDS011;13604;52.496;13.456;2022-08-03T12:27:32;7.18;;;1.50;;
25758;SDS011;13604;52.496;13.456;2022-08-03T12:30:16;1.42;;;1.20;;
25758;SDS011;13604;52.496;13.456;2022-08-03T12:33:15;1.48;;;1.38;;
25758;SDS011;13604;52.496;13.456;2022-08-03T12:38:55;2.28;;;1.35;;
25758;SDS011;13604;52.496;13.456;2022-08-03T12:41:29;3.30;;;1.40;;
25758;SDS011;13604;52.496;13.456;2022-08-03T12:43:56;2.35;;;1.27;;
25758;SDS011;13604;52.496;13.456;2022-08-03T12:46:22;3.65;;;1.40;;
25758;SDS011;13604;52.496;13.456;2022-08-03T12:49:02;4.32;;;1.67;;
25758;SDS011;13604;52.496;13.456;2022-08-03T12:51:33;2.10;;;1.50;;
25758;SDS011;13604;52.496;13.456;2022-08-03T12:54:20;3.65;;;1.30;;
25758;SDS011;13604;52.496;13.456;2022-08-03T12:57:04;3.65;;;1.45;;
25758;SDS011;13604;52.496;13.456;2022-08-03T12:59:35;1.30;;;1.20;;
25758;SDS011;13604;52.496;13.456;2022-08-03T13:02:02;2.47;;;1.00;;
25758;SDS011;13604;52.496;13.456;2022-08-03T13:04:32;2.75;;;1.38;;
25758;SDS011;13604;52.496;13.456;2022-08-03T13:07:02;2.25;;;0.95;;
25758;SDS011;13604;52.496;13.456;2022-08-03T13:09:29;1.42;;;1.27;;
25758;SDS011;13604;52.496;13.456;2022-08-03T13:12:10;1.27;;;1.10;;
25758;SDS011;13604;52.496;13.456;2022-08-03T13:14:43;2.20;;;2.00;;
25758;SDS011;13604;52.496;13.456;2022-08-03T13:17:11;1.40;;;1.30;;
25758;SDS011;13604;52.496;13.456;2022-08-03T13:19:37;4.35;;;1.50;;
25758;SDS011;13604;52.496;13.456;2022-08-03T13:22:13;3.97;;;2.00;;
25758;SDS011;13604;52.496;13.456;2022-08-03T13:24:53;4.75;;;1.60;;
25758;SDS011;13604;52.496;13.456;2022-08-03T13:27:20;1.65;;;1.55;;
25758;SDS011;13604;52.496;13.456;2022-08-03T13:29:45;3.90;;;1.55;;
25758;SDS011;13604;52.496;13.456;2022-08-03T13:32:11;3.70;;;1.63;;
25758;SDS011;13604;52.496;13.456;2022-08-03T13:34:36;3.33;;;1.37;;
25758;SDS011;13604;52.496;13.456;2022-08-03T13:37:02;1.92;;;1.40;;
25758;SDS011;13604;52.496;13.456;2022-08-03T13:39:27;3.03;;;1.55;;
25758;SDS011;13604;52.496;13.456;2022-08-03T13:41:52;2.60;;;1.40;;
25758;SDS011;13604;52.496;13.456;2022-08-03T13:44:18;1.63;;;1.50;;
25758;SDS011;13604;52.496;13.456;2022-08-03T13:46:44;2.15;;;1.70;;
25758;SDS011;13604;52.496;13.456;2022-08-03T13:49:10;2.33;;;1.30;;
25758;SDS011;13604;52.496;13.456;2022-08-03T13:51:35;5.80;;;1.35;;
25758;SDS011;13604;52.496;13.456;2022-08-03T13:54:00;2.03;;;1.40;;
25758;SDS011;13604;52.496;13.456;2022-08-03T13:56:26;3.47;;;1.37;;
25758;SDS011;13604;52.496;13.456;2022-08-03T13:58:51;3.58;;;1.55;;
25758;SDS011;13604;52.496;13.456;2022-08-03T14:01:17;5.07;;;1.45;;
25758;SDS011;13604;52.496;13.456;2022-08-03T14:03:42;1.50;;;1.27;;
25758;SDS011;13604;52.496;13.456;2022-08-03T14:06:08;2.17;;;1.20;;
25758;SDS011;13604;52.496;13.456;2022-08-03T14:08:33;1.80;;;1.20;;
25758;SDS011;13604;52.496;13.456;2022-08-03T14:10:59;3.38;;;1.38;;
25758;SDS011;13604;52.496;13.456;2022-08-03T14:13:24;1.45;;;1.25;;
25758;SDS011;13604;52.496;13.456;2022-08-03T14:15:49;2.37;;;1.23;;
25758;SDS011;13604;52.496;13.456;2022-08-03T14:18:15;1.52;;;1.35;;
25758;SDS011;13604;52.496;13.456;2022-08-03T14:20:42;5.53;;;2.05;;
25758;SDS011;13604;52.496;13.456;2022-08-03T14:23:08;7.85;;;2.20;;
25758;SDS011;13604;52.496;13.456;2022-08-03T14:25:33;4.97;;;2.03;;
25758;SDS011;13604;52.496;13.456;2022-08-03T14:27:59;5.53;;;1.50;;
25758;SDS011;13604;52.496;13.456;2022-08-03T14:30:24;3.07;;;1.30;;
25758;SDS011;13604;52.496;13.456;2022-08-03T14:32:49;1.37;;;1.00;;
25758;SDS011;13604;52.496;13.456;2022-08-03T14:35:15;1.37;;;1.27;;
25758;SDS011;13604;52.496;13.456;2022-08-03T14:37:40;1.57;;;1.17;;
25758;SDS011;13604;52.496;13.456;2022-08-03T14:40:05;2.63;;;1.23;;
25758;SDS011;13604;52.496;13.456;2022-08-03T14:42:31;1.45;;;1.30;;
25758;SDS011;13604;52.496;13.456;2022-08-03T14:44:56;1.50;;;1.40;;
25758;SDS011;13604;52.496;13.456;2022-08-03T14:47:22;2.97;;;1.30;;
25758;SDS011;13604;52.496;13.456;2022-08-03T14:49:47;3.90;;;1.20;;
25758;SDS011;13604;52.496;13.456;2022-08-03T14:52:12;2.77;;;1.30;;
25758;SDS011;13604;52.496;13.456;2022-08-03T14:54:37;1.57;;;1.40;;
25758;SDS011;13604;52.496;13.456;2022-08-03T14:57:03;2.80;;;1.33;;
25758;SDS011;13604;52.496;13.456;2022-08-03T14:59:28;2.00;;;1.50;;
25758;SDS011;13604;52.496;13.456;2022-08-03T15:01:53;3.13;;;1.40;;
25758;SDS011;13604;52.496;13.456;2022-08-03T15:04:19;4.10;;;1.48;;
25758;SDS011;13604;52.496;13.456;2022-08-03T15:06:44;3.63;;;1.47;;
25758;SDS011;13604;52.496;13.456;2022-08-03T15:09:10;1.93;;;1.40;;
25758;SDS011;13604;52.496;13.456;2022-08-03T15:11:35;2.60;;;1.57;;
25758;SDS011;13604;52.496;13.456;2022-08-03T15:14:00;9.07;;;1.80;;
25758;SDS011;13604;52.496;13.456;2022-08-03T15:16:26;2.45;;;1.58;;
25758;SDS011;13604;52.496;13.456;2022-08-03T15:18:51;3.03;;;1.20;;
25758;SDS011;13604;52.496;13.456;2022-08-03T15:21:16;2.83;;;1.27;;